createdAt,value
2023-04-17T00:00:08.950Z,998.03
2023-04-17T00:00:34.366Z,997.93
2023-04-17T00:00:56.741Z,997.93
2023-04-17T00:01:28.028Z,997.93
2023-04-17T00:02:00.092Z,997.93
2023-04-17T00:02:32.286Z,997.93
2023-04-17T00:03:04.345Z,997.93
2023-04-17T00:03:36.206Z,997.93
2023-04-17T00:04:08.134Z,997.93
2023-04-17T00:04:34.520Z,997.83
2023-04-17T00:04:56.892Z,997.83
2023-04-17T00:05:28.619Z,997.83
2023-04-17T00:06:00.000Z,997.93
2023-04-17T00:06:32.006Z,997.93
2023-04-17T00:07:04.054Z,997.93
2023-04-17T00:07:36.013Z,997.93
2023-04-17T00:08:07.987Z,997.93
2023-04-17T00:08:34.373Z,997.73
2023-04-17T00:08:56.572Z,997.73
2023-04-17T00:09:28.596Z,997.73
2023-04-17T00:10:00.027Z,998.03
2023-04-17T00:10:32.423Z,998.03
2023-04-17T00:11:07.743Z,998.14
2023-04-17T00:11:35.995Z,998.14
2023-04-17T00:12:08.036Z,997.83
2023-04-17T00:12:35.114Z,997.93
2023-04-17T00:12:56.478Z,997.93
2023-04-17T00:13:28.001Z,997.93
2023-04-17T00:13:59.998Z,997.83
2023-04-17T00:14:32.049Z,997.83
2023-04-17T00:15:04.525Z,997.93
2023-04-17T00:15:36.743Z,997.93
2023-04-17T00:16:08.282Z,998.03
2023-04-17T00:16:34.443Z,998.14
2023-04-17T00:16:56.534Z,998.14
2023-04-17T00:17:28.072Z,998.14
2023-04-17T00:18:00.321Z,998.03
2023-04-17T00:18:32.075Z,998.03
2023-04-17T00:19:03.997Z,997.83
2023-04-17T00:19:36.013Z,997.83
2023-04-17T00:20:08.332Z,997.93
2023-04-17T00:20:34.396Z,997.83
2023-04-17T00:20:56.953Z,997.83
2023-04-17T00:21:27.966Z,997.83
2023-04-17T00:22:00.675Z,997.83
2023-04-17T00:22:32.063Z,997.83
2023-04-17T00:23:04.122Z,997.93
2023-04-17T00:23:36.622Z,997.93
2023-04-17T00:24:07.984Z,997.93
2023-04-17T00:24:34.405Z,997.63
2023-04-17T00:24:56.506Z,997.63
2023-04-17T00:25:28.394Z,997.63
2023-04-17T00:25:59.998Z,997.93
2023-04-17T00:26:32.090Z,997.93
2023-04-17T00:27:04.113Z,997.93
2023-04-17T00:27:36.050Z,997.93
2023-04-17T00:28:08.010Z,997.93
2023-04-17T00:28:34.395Z,997.93
2023-04-17T00:28:56.449Z,997.93
2023-04-17T00:29:27.979Z,997.93
2023-04-17T00:29:59.974Z,997.93
2023-04-17T00:30:32.530Z,997.93
2023-04-17T00:31:04.024Z,997.93
2023-04-17T00:31:36.653Z,997.93
2023-04-17T00:32:08.162Z,998.03
2023-04-17T00:32:34.615Z,997.93
2023-04-17T00:32:56.520Z,997.93
2023-04-17T00:33:28.027Z,997.93
2023-04-17T00:34:00.433Z,998.03
2023-04-17T00:34:32.078Z,998.03
2023-04-17T00:35:04.354Z,997.73
2023-04-17T00:35:36.046Z,997.73
2023-04-17T00:36:08.016Z,997.63
2023-04-17T00:36:34.812Z,997.83
2023-04-17T00:36:56.490Z,997.83
2023-04-17T00:37:27.994Z,997.83
2023-04-17T00:38:00.647Z,997.73
2023-04-17T00:38:32.025Z,997.73
2023-04-17T00:39:04.019Z,997.83
2023-04-17T00:39:36.003Z,997.83
2023-04-17T00:40:08.492Z,998.03
2023-04-17T00:40:34.694Z,998.14
2023-04-17T00:40:57.289Z,998.14
2023-04-17T00:41:28.082Z,998.14
2023-04-17T00:42:01.261Z,997.83
2023-04-17T00:42:32.110Z,997.83
2023-04-17T00:43:04.121Z,997.83
2023-04-17T00:43:36.263Z,997.83
2023-04-17T00:44:08.677Z,997.83
2023-04-17T00:44:34.436Z,998.03
2023-04-17T00:44:56.582Z,998.03
2023-04-17T00:45:28.665Z,998.03
2023-04-17T00:46:00.227Z,997.93
2023-04-17T00:46:32.185Z,997.93
2023-04-17T00:47:04.037Z,998.03
2023-04-17T00:47:36.793Z,998.03
2023-04-17T00:48:08.287Z,997.93
2023-04-17T00:48:34.702Z,998.03
2023-04-17T00:48:56.745Z,998.03
2023-04-17T00:49:28.589Z,998.03
2023-04-17T00:50:01.627Z,997.83
2023-04-17T00:50:32.130Z,997.83
2023-04-17T00:51:04.044Z,997.73
2023-04-17T00:51:36.281Z,997.73
2023-04-17T00:52:09.391Z,997.83
2023-04-17T00:52:34.761Z,997.93
2023-04-17T00:52:56.506Z,997.93
2023-04-17T00:53:28.020Z,997.93
2023-04-17T00:54:00.908Z,997.73
2023-04-17T00:54:32.073Z,997.73
2023-04-17T00:55:04.911Z,997.83
2023-04-17T00:55:36.362Z,997.83
2023-04-17T00:56:08.041Z,997.73
2023-04-17T00:56:34.392Z,997.93
2023-04-17T00:56:56.710Z,997.93
2023-04-17T00:57:28.091Z,997.93
2023-04-17T00:58:00.101Z,997.83
2023-04-17T00:58:32.090Z,997.83
2023-04-17T00:59:04.092Z,997.53
2023-04-17T00:59:36.115Z,997.53
2023-04-17T01:00:08.969Z,997.63
2023-04-17T01:00:34.444Z,997.73
2023-04-17T01:00:56.886Z,997.73
2023-04-17T01:01:28.029Z,997.73
2023-04-17T01:02:00.196Z,997.73
2023-04-17T01:02:32.273Z,997.73
2023-04-17T01:03:04.225Z,997.83
2023-04-17T01:03:36.704Z,997.83
2023-04-17T01:04:08.154Z,997.73
2023-04-17T01:04:35.066Z,997.53
2023-04-17T01:04:56.510Z,997.53
2023-04-17T01:05:28.387Z,997.53
2023-04-17T01:06:00.058Z,997.53
2023-04-17T01:06:32.196Z,997.53
2023-04-17T01:07:04.045Z,997.63
2023-04-17T01:07:36.085Z,997.63
2023-04-17T01:08:08.029Z,997.63
2023-04-17T01:08:34.897Z,997.63
2023-04-17T01:08:56.531Z,997.63
2023-04-17T01:09:28.647Z,997.63
2023-04-17T01:10:00.093Z,997.83
2023-04-17T01:10:32.380Z,997.83
2023-04-17T01:11:04.041Z,997.73
2023-04-17T01:11:36.046Z,997.73
2023-04-17T01:12:08.075Z,997.63
2023-04-17T01:12:35.115Z,997.83
2023-04-17T01:12:56.540Z,997.83
2023-04-17T01:13:28.061Z,997.83
2023-04-17T01:14:00.061Z,997.63
2023-04-17T01:14:32.106Z,997.63
2023-04-17T01:15:04.615Z,997.73
2023-04-17T01:15:37.128Z,997.73
2023-04-17T01:16:08.234Z,997.53
2023-04-17T01:16:34.476Z,997.53
2023-04-17T01:16:56.543Z,997.53
2023-04-17T01:17:28.059Z,997.53
2023-04-17T01:18:00.203Z,997.53
2023-04-17T01:18:32.065Z,997.53
2023-04-17T01:19:04.023Z,997.73
2023-04-17T01:19:36.028Z,997.73
2023-04-17T01:20:08.327Z,997.53
2023-04-17T01:20:34.427Z,997.73
2023-04-17T01:20:56.847Z,997.73
2023-04-17T01:21:28.047Z,997.73
2023-04-17T01:22:00.768Z,997.63
2023-04-17T01:22:32.098Z,997.63
2023-04-17T01:23:04.063Z,997.63
2023-04-17T01:23:36.341Z,997.63
2023-04-17T01:24:08.011Z,997.53
2023-04-17T01:24:34.690Z,997.53
2023-04-17T01:24:56.482Z,997.53
2023-04-17T01:25:28.313Z,997.53
2023-04-17T01:26:00.392Z,997.73
2023-04-17T01:26:32.139Z,997.73
2023-04-17T01:27:04.109Z,997.43
2023-04-17T01:27:36.025Z,997.43
2023-04-17T01:28:08.046Z,997.53
2023-04-17T01:28:34.419Z,997.73
2023-04-17T01:28:56.567Z,997.73
2023-04-17T01:29:28.055Z,997.73
2023-04-17T01:30:00.042Z,997.73
2023-04-17T01:30:32.865Z,997.73
2023-04-17T01:31:04.200Z,997.83
2023-04-17T01:31:36.630Z,997.83
2023-04-17T01:32:08.239Z,997.83
2023-04-17T01:32:34.473Z,997.73
2023-04-17T01:32:56.490Z,997.73
2023-04-17T01:33:28.004Z,997.73
2023-04-17T01:33:59.976Z,997.53
2023-04-17T01:34:32.013Z,997.53
2023-04-17T01:35:04.303Z,997.63
2023-04-17T01:35:35.975Z,997.63
2023-04-17T01:36:07.962Z,997.63
2023-04-17T01:36:34.359Z,997.73
2023-04-17T01:36:56.432Z,997.73
2023-04-17T01:37:27.991Z,997.73
2023-04-17T01:38:00.652Z,997.43
2023-04-17T01:38:32.065Z,997.43
2023-04-17T01:39:03.993Z,997.63
2023-04-17T01:39:36.004Z,997.63
2023-04-17T01:40:08.299Z,997.73
2023-04-17T01:40:34.422Z,997.73
2023-04-17T01:40:56.806Z,997.73
2023-04-17T01:41:27.971Z,997.73
2023-04-17T01:41:59.976Z,997.53
2023-04-17T01:42:32.045Z,997.53
2023-04-17T01:43:03.978Z,997.73
2023-04-17T01:43:35.976Z,997.73
2023-04-17T01:44:07.961Z,997.83
2023-04-17T01:44:34.549Z,997.73
2023-04-17T01:44:56.445Z,997.73
2023-04-17T01:45:28.533Z,997.73
2023-04-17T01:46:00.073Z,997.73
2023-04-17T01:46:32.121Z,997.73
2023-04-17T01:47:04.007Z,997.83
2023-04-17T01:47:36.508Z,997.83
2023-04-17T01:48:08.029Z,997.73
2023-04-17T01:48:34.660Z,997.63
2023-04-17T01:48:56.466Z,997.63
2023-04-17T01:49:27.988Z,997.63
2023-04-17T01:50:00.081Z,997.93
2023-04-17T01:50:32.446Z,997.93
2023-04-17T01:51:04.007Z,997.73
2023-04-17T01:51:35.953Z,997.73
2023-04-17T01:52:07.979Z,997.83
2023-04-17T01:52:34.349Z,997.83
2023-04-17T01:52:56.471Z,997.83
2023-04-17T01:53:28.032Z,997.83
2023-04-17T01:54:00.545Z,997.83
2023-04-17T01:54:32.052Z,997.83
2023-04-17T01:55:04.319Z,997.83
2023-04-17T01:55:36.119Z,997.83
2023-04-17T01:56:08.008Z,997.73
2023-04-17T01:56:34.380Z,997.63
2023-04-17T01:56:56.439Z,997.63
2023-04-17T01:57:27.993Z,997.63
2023-04-17T01:57:59.965Z,997.93
2023-04-17T01:58:32.045Z,997.93
2023-04-17T01:59:03.960Z,997.83
2023-04-17T01:59:35.969Z,997.83
2023-04-17T02:00:12.049Z,997.73
2023-04-17T02:00:34.425Z,997.83
2023-04-17T02:00:56.765Z,997.83
2023-04-17T02:01:28.135Z,997.83
2023-04-17T02:02:00.146Z,997.73
2023-04-17T02:02:32.114Z,997.73
2023-04-17T02:03:04.183Z,997.73
2023-04-17T02:03:36.836Z,997.73
2023-04-17T02:04:08.160Z,997.83
2023-04-17T02:04:34.714Z,997.73
2023-04-17T02:04:56.468Z,997.73
2023-04-17T02:05:28.325Z,997.73
2023-04-17T02:05:59.985Z,997.93
2023-04-17T02:06:32.109Z,997.93
2023-04-17T02:07:03.955Z,997.73
2023-04-17T02:07:36.481Z,997.73
2023-04-17T02:08:07.978Z,997.83
2023-04-17T02:08:34.346Z,997.73
2023-04-17T02:08:56.380Z,997.73
2023-04-17T02:09:28.007Z,997.73
2023-04-17T02:10:02.337Z,997.73
2023-04-17T02:10:32.101Z,997.73
2023-04-17T02:11:03.985Z,997.83
2023-04-17T02:11:36.033Z,997.83
2023-04-17T02:12:08.018Z,997.73
2023-04-17T02:12:34.334Z,997.73
2023-04-17T02:12:56.450Z,997.73
2023-04-17T02:13:27.985Z,997.73
2023-04-17T02:13:59.953Z,998.03
2023-04-17T02:14:31.979Z,998.03
2023-04-17T02:15:04.486Z,997.63
2023-04-17T02:15:36.008Z,997.63
2023-04-17T02:16:08.221Z,997.83
2023-04-17T02:16:34.566Z,997.83
2023-04-17T02:16:56.479Z,997.83
2023-04-17T02:17:28.129Z,997.83
2023-04-17T02:18:00.338Z,997.93
2023-04-17T02:18:31.995Z,997.93
2023-04-17T02:19:04.021Z,997.63
2023-04-17T02:19:36.575Z,997.63
2023-04-17T02:20:08.499Z,997.63
2023-04-17T02:20:34.352Z,997.63
2023-04-17T02:20:56.724Z,997.63
2023-04-17T02:21:27.983Z,997.63
2023-04-17T02:21:59.994Z,997.63
2023-04-17T02:22:31.984Z,997.63
2023-04-17T02:23:03.968Z,997.63
2023-04-17T02:23:35.963Z,997.63
2023-04-17T02:24:07.994Z,997.83
2023-04-17T02:24:34.740Z,997.73
2023-04-17T02:24:56.456Z,997.73
2023-04-17T02:25:28.305Z,997.73
2023-04-17T02:26:00.549Z,997.73
2023-04-17T02:26:32.027Z,997.73
2023-04-17T02:27:04.046Z,997.73
2023-04-17T02:27:35.981Z,997.73
2023-04-17T02:28:07.987Z,997.63
2023-04-17T02:28:34.356Z,997.83
2023-04-17T02:28:56.443Z,997.83
2023-04-17T02:29:27.982Z,997.83
2023-04-17T02:29:59.976Z,997.83
2023-04-17T02:30:32.503Z,997.83
2023-04-17T02:31:04.045Z,997.53
2023-04-17T02:31:36.022Z,997.53
2023-04-17T02:32:08.144Z,997.73
2023-04-17T02:32:34.569Z,997.73
2023-04-17T02:32:56.561Z,997.73
2023-04-17T02:33:28.193Z,997.73
2023-04-17T02:33:59.978Z,997.63
2023-04-17T02:34:31.984Z,997.63
2023-04-17T02:35:04.304Z,997.73
2023-04-17T02:35:36.496Z,997.73
2023-04-17T02:39:20.026Z,997.83
2023-04-17T02:39:41.806Z,997.93
2023-04-17T02:40:08.271Z,997.93
2023-04-17T02:40:34.781Z,997.73
2023-04-17T02:40:56.849Z,997.73
2023-04-17T02:41:28.050Z,997.73
2023-04-17T02:42:00.124Z,997.83
2023-04-17T02:42:31.999Z,997.83
2023-04-17T02:43:03.960Z,997.83
2023-04-17T02:43:36.003Z,997.83
2023-04-17T02:44:08.014Z,997.73
2023-04-17T02:44:34.325Z,997.73
2023-04-17T02:44:57.118Z,997.73
2023-04-17T02:45:28.491Z,997.73
2023-04-17T02:45:59.981Z,997.73
2023-04-17T02:46:32.005Z,997.73
2023-04-17T02:47:03.986Z,997.93
2023-04-17T02:47:36.015Z,997.93
2023-04-17T02:48:08.468Z,997.73
2023-04-17T02:48:34.788Z,997.73
2023-04-17T02:48:56.776Z,997.73
2023-04-17T02:49:27.991Z,997.73
2023-04-17T02:50:00.052Z,997.83
2023-04-17T02:50:32.246Z,997.83
2023-04-17T02:51:04.007Z,998.03
2023-04-17T02:51:35.980Z,998.03
2023-04-17T02:52:08.014Z,997.73
2023-04-17T02:52:34.343Z,997.73
2023-04-17T02:52:56.018Z,997.73
2023-04-17T02:53:27.962Z,997.73
2023-04-17T02:53:59.969Z,997.93
2023-04-17T02:54:32.924Z,997.93
2023-04-17T02:55:04.216Z,997.83
2023-04-17T02:55:35.985Z,997.83
2023-04-17T02:56:07.991Z,997.73
2023-04-17T02:56:34.358Z,997.63
2023-04-17T02:56:56.059Z,997.63
2023-04-17T02:57:28.016Z,997.63
2023-04-17T02:57:59.976Z,997.83
2023-04-17T02:58:32.026Z,997.83
2023-04-17T02:59:03.994Z,997.93
2023-04-17T02:59:35.999Z,997.93
2023-04-17T03:00:08.567Z,997.93
2023-04-17T03:00:34.410Z,997.83
2023-04-17T03:00:57.509Z,997.83
2023-04-17T03:01:28.301Z,997.83
2023-04-17T03:02:00.013Z,997.73
2023-04-17T03:02:32.110Z,997.73
2023-04-17T03:03:04.065Z,997.73
2023-04-17T03:03:36.110Z,997.73
2023-04-17T03:04:08.903Z,997.53
2023-04-17T03:04:34.325Z,997.73
2023-04-17T03:04:56.034Z,997.73
2023-04-17T03:05:28.279Z,997.73
2023-04-17T03:06:00.021Z,997.93
2023-04-17T03:06:31.971Z,997.93
2023-04-17T03:07:04.042Z,997.93
2023-04-17T03:07:36.014Z,997.93
2023-04-17T03:08:08.017Z,997.83
2023-04-17T03:08:34.366Z,997.73
2023-04-17T03:08:56.037Z,997.73
2023-04-17T03:09:27.957Z,997.73
2023-04-17T03:09:59.967Z,997.63
2023-04-17T03:10:33.098Z,997.63
2023-04-17T03:11:03.979Z,997.73
2023-04-17T03:11:35.986Z,997.73
2023-04-17T03:12:08.093Z,997.93
2023-04-17T03:12:34.361Z,997.53
2023-04-17T03:12:56.037Z,997.53
2023-04-17T03:13:27.991Z,997.53
2023-04-17T03:14:00.015Z,997.73
2023-04-17T03:14:31.974Z,997.73
2023-04-17T03:15:05.386Z,997.83
2023-04-17T03:15:36.059Z,997.83
2023-04-17T03:16:08.257Z,997.83
2023-04-17T03:16:34.351Z,997.73
2023-04-17T03:16:57.136Z,997.73
2023-04-17T03:17:27.974Z,997.73
2023-04-17T03:18:00.032Z,997.73
2023-04-17T03:18:31.984Z,997.73
2023-04-17T03:19:04.007Z,997.73
2023-04-17T03:19:35.970Z,997.73
2023-04-17T03:20:09.553Z,997.83
2023-04-17T03:20:35.468Z,997.63
2023-04-17T03:20:56.730Z,997.63
2023-04-17T03:21:27.979Z,997.63
2023-04-17T03:21:59.999Z,997.93
2023-04-17T03:22:32.008Z,997.93
2023-04-17T03:23:04.007Z,997.63
2023-04-17T03:23:35.969Z,997.63
2023-04-17T03:24:08.049Z,997.73
2023-04-17T03:24:34.362Z,997.83
2023-04-17T03:24:56.012Z,997.83
2023-04-17T03:25:28.247Z,997.83
2023-04-17T03:25:59.952Z,997.83
2023-04-17T03:26:36.598Z,997.83
2023-04-17T03:27:04.007Z,997.83
2023-04-17T03:27:35.980Z,997.83
2023-04-17T03:28:07.956Z,997.83
2023-04-17T03:28:34.330Z,997.63
2023-04-17T03:28:56.045Z,997.63
2023-04-17T03:29:28.018Z,997.63
2023-04-17T03:29:59.977Z,997.73
2023-04-17T03:30:32.943Z,997.73
2023-04-17T03:31:04.023Z,997.63
2023-04-17T03:31:36.028Z,997.63
2023-04-17T03:32:08.209Z,998.03
2023-04-17T03:32:34.342Z,997.93
2023-04-17T03:32:57.380Z,997.93
2023-04-17T03:33:27.960Z,997.93
2023-04-17T03:34:00.319Z,997.93
2023-04-17T03:34:31.982Z,997.93
2023-04-17T03:35:04.301Z,997.83
2023-04-17T03:35:35.974Z,997.83
2023-04-17T03:36:08.766Z,997.83
2023-04-17T03:36:34.743Z,997.83
2023-04-17T03:36:56.018Z,997.83
2023-04-17T03:37:28.009Z,997.83
2023-04-17T03:37:59.983Z,997.83
2023-04-17T03:38:31.966Z,997.83
2023-04-17T03:39:04.054Z,997.83
2023-04-17T03:39:36.008Z,997.83
2023-04-17T03:40:08.328Z,997.73
2023-04-17T03:40:34.662Z,998.03
2023-04-17T03:40:56.917Z,998.03
2023-04-17T03:41:28.001Z,998.03
2023-04-17T03:41:59.946Z,997.93
2023-04-17T03:42:32.937Z,997.93
2023-04-17T03:43:04.025Z,997.83
2023-04-17T03:43:35.972Z,997.83
2023-04-17T03:44:07.978Z,997.93
2023-04-17T03:44:34.360Z,997.93
2023-04-17T03:44:55.980Z,997.93
2023-04-17T03:45:28.477Z,997.93
2023-04-17T03:46:00.155Z,997.93
2023-04-17T03:46:32.088Z,997.93
2023-04-17T03:47:04.004Z,997.63
2023-04-17T03:47:36.052Z,997.63
2023-04-17T03:48:08.106Z,997.73
2023-04-17T03:48:34.321Z,997.73
2023-04-17T03:48:57.137Z,997.73
2023-04-17T03:49:28.001Z,997.73
2023-04-17T03:49:59.956Z,997.83
2023-04-17T03:50:32.243Z,997.83
2023-04-17T03:51:04.003Z,997.93
2023-04-17T03:51:36.002Z,997.93
2023-04-17T03:52:08.778Z,997.63
2023-04-17T03:52:34.396Z,997.73
2023-04-17T03:52:56.038Z,997.73
2023-04-17T03:53:27.989Z,997.73
2023-04-17T03:53:59.986Z,997.83
2023-04-17T03:54:32.013Z,997.83
2023-04-17T03:55:04.322Z,997.93
2023-04-17T03:55:35.982Z,997.93
2023-04-17T03:56:08.010Z,997.83
2023-04-17T03:56:34.342Z,998.03
2023-04-17T03:56:55.986Z,998.03
2023-04-17T03:57:27.955Z,998.03
2023-04-17T03:57:59.940Z,997.93
2023-04-17T03:58:32.830Z,997.93
2023-04-17T03:59:04.016Z,997.83
2023-04-17T03:59:35.967Z,997.83
2023-04-17T04:00:08.581Z,997.83
2023-04-17T04:00:34.381Z,997.73
2023-04-17T04:00:56.689Z,997.73
2023-04-17T04:01:28.005Z,997.73
2023-04-17T04:02:01.161Z,997.93
2023-04-17T04:02:31.672Z,997.93
2023-04-17T04:03:03.656Z,997.93
2023-04-17T04:03:35.749Z,997.93
2023-04-17T04:04:07.724Z,997.73
2023-04-17T04:04:34.165Z,998.14
2023-04-17T04:04:55.600Z,998.14
2023-04-17T04:05:28.113Z,998.14
2023-04-17T04:05:59.502Z,998.03
2023-04-17T04:06:31.548Z,998.03
2023-04-17T04:07:05.599Z,997.83
2023-04-17T04:07:37.385Z,997.83
2023-04-17T04:08:07.995Z,998.03
2023-04-17T04:08:34.638Z,997.63
2023-04-17T04:08:55.977Z,997.63
2023-04-17T04:09:28.487Z,997.63
2023-04-17T04:10:00.043Z,998.14
2023-04-17T04:10:32.369Z,998.14
2023-04-17T04:11:04.155Z,997.73
2023-04-17T04:11:36.278Z,997.73
2023-04-17T04:12:08.625Z,998.03
2023-04-17T04:12:35.751Z,997.93
2023-04-17T04:12:55.964Z,997.93
2023-04-17T04:13:28.248Z,997.93
2023-04-17T04:14:00.037Z,997.93
2023-04-17T04:14:31.965Z,997.93
2023-04-17T04:15:04.551Z,997.93
2023-04-17T04:15:36.608Z,997.93
2023-04-17T04:16:08.296Z,998.03
2023-04-17T04:16:34.665Z,998.03
2023-04-17T04:16:55.987Z,998.03
2023-04-17T04:17:28.294Z,998.03
2023-04-17T04:18:00.128Z,997.93
2023-04-17T04:18:31.993Z,997.93
2023-04-17T04:19:04.001Z,998.03
2023-04-17T04:19:36.313Z,998.03
2023-04-17T04:20:08.289Z,998.03
2023-04-17T04:20:34.337Z,997.93
2023-04-17T04:20:56.224Z,997.93
2023-04-17T04:21:28.298Z,997.93
2023-04-17T04:22:00.893Z,998.03
2023-04-17T04:22:32.279Z,998.03
2023-04-17T04:23:04.158Z,998.03
2023-04-17T04:23:35.974Z,998.03
2023-04-17T04:24:07.961Z,998.03
2023-04-17T04:24:34.541Z,998.14
2023-04-17T04:24:55.993Z,998.14
2023-04-17T04:25:28.623Z,998.14
2023-04-17T04:26:00.131Z,998.03
2023-04-17T04:26:31.982Z,998.03
2023-04-17T04:27:04.017Z,998.03
2023-04-17T04:27:35.985Z,998.03
2023-04-17T04:28:07.981Z,998.03
2023-04-17T04:28:34.350Z,998.03
2023-04-17T04:28:55.961Z,998.03
2023-04-17T04:29:28.268Z,998.03
2023-04-17T04:30:00.003Z,997.93
2023-04-17T04:30:32.476Z,997.93
2023-04-17T04:31:04.178Z,998.14
2023-04-17T04:31:37.275Z,998.14
2023-04-17T04:32:07.965Z,998.03
2023-04-17T04:32:34.362Z,998.14
2023-04-17T04:32:56.481Z,998.14
2023-04-17T04:33:28.457Z,998.14
2023-04-17T04:34:00.150Z,997.93
2023-04-17T04:34:31.989Z,997.93
2023-04-17T04:35:04.296Z,998.14
2023-04-17T04:35:37.733Z,998.14
2023-04-17T04:36:07.973Z,997.93
2023-04-17T04:36:34.678Z,998.03
2023-04-17T04:36:56.068Z,998.03
2023-04-17T04:37:28.443Z,998.03
2023-04-17T04:38:00.998Z,998.03
2023-04-17T04:38:32.110Z,998.03
2023-04-17T04:39:04.123Z,998.03
2023-04-17T04:39:36.109Z,998.03
2023-04-17T04:40:08.387Z,998.14
2023-04-17T04:40:34.489Z,998.14
2023-04-17T04:40:56.351Z,998.14
2023-04-17T04:41:28.462Z,998.14
2023-04-17T04:42:00.187Z,998.03
2023-04-17T04:42:32.131Z,998.03
2023-04-17T04:43:04.181Z,998.03
2023-04-17T04:43:36.141Z,998.03
2023-04-17T04:44:08.145Z,998.14
2023-04-17T04:44:34.462Z,998.03
2023-04-17T04:44:56.086Z,998.03
2023-04-17T04:45:29.057Z,998.03
2023-04-17T04:46:00.143Z,998.03
2023-04-17T04:46:32.347Z,998.03
2023-04-17T04:47:04.161Z,998.03
2023-04-17T04:47:36.905Z,998.03
2023-04-17T04:48:08.135Z,998.14
2023-04-17T04:48:34.411Z,998.14
2023-04-17T04:48:56.096Z,998.14
2023-04-17T04:49:28.556Z,998.14
2023-04-17T04:50:00.615Z,997.93
2023-04-17T04:50:32.387Z,997.93
2023-04-17T04:51:04.076Z,998.03
2023-04-17T04:51:36.075Z,998.03
2023-04-17T04:52:08.129Z,998.14
2023-04-17T04:52:34.459Z,998.14
2023-04-17T04:52:56.083Z,998.14
2023-04-17T04:53:28.552Z,998.14
2023-04-17T04:54:01.349Z,998.34
2023-04-17T04:54:32.157Z,998.34
2023-04-17T04:55:04.461Z,998.14
2023-04-17T04:55:36.046Z,998.14
2023-04-17T04:56:08.059Z,998.03
2023-04-17T04:56:34.983Z,998.14
2023-04-17T04:56:56.113Z,998.14
2023-04-17T04:57:28.578Z,998.14
2023-04-17T04:58:00.166Z,998.24
2023-04-17T04:58:32.169Z,998.24
2023-04-17T04:59:04.147Z,998.14
2023-04-17T04:59:37.974Z,998.14
2023-04-17T05:00:08.736Z,998.24
2023-04-17T05:00:34.460Z,998.24
2023-04-17T05:00:56.418Z,998.24
2023-04-17T05:01:28.507Z,998.24
2023-04-17T05:02:00.254Z,998.24
2023-04-17T05:02:32.240Z,998.24
2023-04-17T05:03:04.274Z,998.03
2023-04-17T05:03:37.032Z,998.03
2023-04-17T05:04:08.198Z,998.24
2023-04-17T05:04:34.666Z,998.03
2023-04-17T05:04:56.233Z,998.03
2023-04-17T05:05:28.798Z,998.03
2023-04-17T05:06:00.204Z,998.34
2023-04-17T05:06:32.121Z,998.34
2023-04-17T05:07:04.144Z,998.14
2023-04-17T05:07:36.126Z,998.14
2023-04-17T05:08:08.051Z,998.14
2023-04-17T05:08:34.591Z,998.24
2023-04-17T05:08:56.095Z,998.24
2023-04-17T05:09:28.551Z,998.24
2023-04-17T05:10:02.702Z,998.24
2023-04-17T05:10:32.115Z,998.24
2023-04-17T05:11:04.221Z,998.14
2023-04-17T05:11:36.285Z,998.14
2023-04-17T05:12:08.099Z,998.24
2023-04-17T05:12:34.691Z,998.14
2023-04-17T05:12:56.072Z,998.14
2023-04-17T05:13:28.566Z,998.14
2023-04-17T05:14:00.181Z,998.24
2023-04-17T05:14:32.056Z,998.24
2023-04-17T05:15:04.669Z,998.24
2023-04-17T05:15:36.151Z,998.24
2023-04-17T05:16:08.382Z,998.34
2023-04-17T05:16:34.474Z,998.14
2023-04-17T05:16:56.085Z,998.14
2023-04-17T05:17:28.690Z,998.14
2023-04-17T05:18:00.217Z,998.34
2023-04-17T05:18:32.100Z,998.34
2023-04-17T05:19:04.301Z,998.34
2023-04-17T05:19:36.797Z,998.34
2023-04-17T05:20:08.406Z,998.34
2023-04-17T05:20:34.473Z,998.24
2023-04-17T05:20:56.339Z,998.24
2023-04-17T05:21:31.030Z,998.24
2023-04-17T05:22:00.186Z,998.44
2023-04-17T05:22:32.135Z,998.44
2023-04-17T05:23:05.919Z,998.24
2023-04-17T05:23:36.161Z,998.24
2023-04-17T05:24:08.128Z,998.44
2023-04-17T05:24:34.468Z,998.24
2023-04-17T05:24:56.055Z,998.24
2023-04-17T05:25:28.819Z,998.24
2023-04-17T05:26:00.153Z,998.24
2023-04-17T05:26:32.156Z,998.24
2023-04-17T05:27:04.149Z,998.34
2023-04-17T05:27:36.047Z,998.34
2023-04-17T05:28:08.092Z,998.34
2023-04-17T05:28:34.443Z,998.34
2023-04-17T05:28:56.081Z,998.34
2023-04-17T05:29:28.680Z,998.34
2023-04-17T05:30:00.198Z,998.34
2023-04-17T05:30:32.628Z,998.34
2023-04-17T05:31:04.197Z,998.24
2023-04-17T05:31:36.253Z,998.24
2023-04-17T05:32:08.169Z,998.24
2023-04-17T05:32:35.275Z,998.34
2023-04-17T05:32:56.195Z,998.34
2023-04-17T05:33:28.485Z,998.34
2023-04-17T05:34:00.151Z,998.24
2023-04-17T05:34:32.089Z,998.24
2023-04-17T05:35:04.440Z,998.44
2023-04-17T05:35:37.376Z,998.44
2023-04-17T05:36:08.090Z,998.51
2023-04-17T05:36:34.618Z,998.34
2023-04-17T05:36:56.115Z,998.34
2023-04-17T05:37:28.660Z,998.34
2023-04-17T05:38:00.092Z,998.44
2023-04-17T05:38:32.121Z,998.44
2023-04-17T05:39:04.160Z,998.44
2023-04-17T05:39:36.127Z,998.44
2023-04-17T05:40:08.355Z,998.44
2023-04-17T05:40:34.456Z,998.44
2023-04-17T05:40:56.320Z,998.44
2023-04-17T05:41:28.618Z,998.44
2023-04-17T05:42:00.806Z,998.44
2023-04-17T05:42:32.056Z,998.44
2023-04-17T05:43:04.168Z,998.44
2023-04-17T05:43:36.405Z,998.44
2023-04-17T05:44:08.165Z,998.51
2023-04-17T05:44:34.408Z,998.44
2023-04-17T05:44:56.133Z,998.44
2023-04-17T05:45:29.082Z,998.44
2023-04-17T05:46:00.553Z,998.34
2023-04-17T05:46:32.084Z,998.34
2023-04-17T05:47:04.163Z,998.34
2023-04-17T05:47:36.138Z,998.34
2023-04-17T05:48:08.117Z,998.44
2023-04-17T05:48:34.773Z,998.51
2023-04-17T05:48:56.064Z,998.51
2023-04-17T05:49:28.548Z,998.51
2023-04-17T05:50:00.117Z,998.24
2023-04-17T05:50:32.383Z,998.24
2023-04-17T05:51:04.211Z,998.34
2023-04-17T05:51:36.549Z,998.34
2023-04-17T05:52:08.088Z,998.44
2023-04-17T05:52:34.699Z,998.14
2023-04-17T05:52:56.283Z,998.14
2023-04-17T05:53:28.632Z,998.14
2023-04-17T05:54:00.208Z,998.34
2023-04-17T05:54:32.143Z,998.34
2023-04-17T05:55:04.416Z,998.14
2023-04-17T05:55:36.112Z,998.14
2023-04-17T05:56:08.112Z,998.24
2023-04-17T05:56:34.410Z,998.44
2023-04-17T05:56:56.110Z,998.44
2023-04-17T05:57:28.642Z,998.44
2023-04-17T05:58:03.879Z,998.34
2023-04-17T05:58:32.081Z,998.34
2023-04-17T05:59:04.151Z,998.24
2023-04-17T05:59:36.145Z,998.24
2023-04-17T06:00:08.708Z,998.34
2023-04-17T06:00:34.437Z,998.51
2023-04-17T06:00:56.431Z,998.51
2023-04-17T06:01:28.512Z,998.51
2023-04-17T06:02:00.210Z,998.24
2023-04-17T06:02:32.261Z,998.24
2023-04-17T06:03:04.332Z,998.44
2023-04-17T06:03:36.241Z,998.44
2023-04-17T06:04:08.461Z,998.24
2023-04-17T06:04:34.783Z,998.44
2023-04-17T06:04:56.273Z,998.44
2023-04-17T06:05:28.848Z,998.44
2023-04-17T06:06:02.106Z,998.44
2023-04-17T06:06:32.130Z,998.44
2023-04-17T06:07:04.149Z,998.44
2023-04-17T06:07:36.119Z,998.44
2023-04-17T06:08:08.108Z,998.24
2023-04-17T06:08:34.393Z,998.44
2023-04-17T06:08:56.127Z,998.44
2023-04-17T06:09:28.742Z,998.44
2023-04-17T06:10:00.177Z,998.44
2023-04-17T06:10:32.423Z,998.44
2023-04-17T06:11:04.316Z,998.51
2023-04-17T06:11:36.111Z,998.51
2023-04-17T06:12:08.112Z,998.34
2023-04-17T06:12:35.158Z,998.51
2023-04-17T06:12:56.075Z,998.51
2023-04-17T06:13:28.497Z,998.51
2023-04-17T06:14:00.094Z,998.51
2023-04-17T06:14:32.068Z,998.51
2023-04-17T06:15:04.606Z,998.34
2023-04-17T06:15:36.654Z,998.34
2023-04-17T06:16:08.364Z,998.51
2023-04-17T06:16:34.452Z,998.51
2023-04-17T06:16:56.118Z,998.51